Time;durP1;ratioP1;P1;durP2;ratioP2;P2;SDS_P1;SDS_P2;PMS_P1;PMS_P2;Temp;Humidity;BMP_temperature;BMP_pressure;BME280_temperature;BME280_humidity;BME280_pressure;Samples;Min_cycle;Max_cycle;Signal;HPM_P1;HPM_P2
2022/10/30 00:00:46;;;;;;;36.83;24.33;;;13.00;99.90;;;;;;2074281;28;20095;-75
2022/10/30 00:01:47;;;;;;;35.45;24.05;;;13.00;99.90;;;;;;2081897;28;20055;-75
2022/10/30 00:02:48;;;;;;;35.65;24.65;;;13.00;99.90;;;;;;2081455;28;20021;-75
2022/10/30 00:03:48;;;;;;;34.13;23.88;;;13.00;99.90;;;;;;2072728;28;20034;-74
2022/10/30 00:04:49;;;;;;;36.25;24.05;;;13.00;99.90;;;;;;2064089;28;20038;-76
2022/10/30 00:05:50;;;;;;;34.22;23.27;;;13.00;99.90;;;;;;2064049;28;20023;-74
2022/10/30 00:06:51;;;;;;;37.28;24.48;;;13.00;99.90;;;;;;2066173;28;20030;-76
2022/10/30 00:07:54;;;;;;;34.40;23.75;;;12.90;99.90;;;;;;2066017;28;20023;-76
2022/10/30 00:08:55;;;;;;;34.83;23.00;;;12.90;99.90;;;;;;2066716;28;20094;-76
2022/10/30 00:09:56;;;;;;;35.10;24.23;;;12.90;99.90;;;;;;2073350;28;20430;-75
2022/10/30 00:11:03;;;;;;;35.90;23.25;;;12.90;99.90;;;;;;2073291;28;20117;-76
2022/10/30 00:12:04;;;;;;;35.50;24.17;;;12.90;99.90;;;;;;2073597;28;20034;-76
2022/10/30 00:13:05;;;;;;;35.33;24.42;;;12.80;99.90;;;;;;2081288;28;20021;-75
2022/10/30 00:14:06;;;;;;;33.97;23.42;;;12.80;99.90;;;;;;2080884;28;20030;-76
2022/10/30 00:15:08;;;;;;;36.10;23.95;;;12.80;99.90;;;;;;2080954;28;20028;-75
2022/10/30 00:16:09;;;;;;;36.10;24.52;;;12.80;99.90;;;;;;2072105;28;20141;-75
2022/10/30 00:17:10;;;;;;;36.10;24.70;;;12.80;99.90;;;;;;2064510;28;20018;-75
2022/10/30 00:18:10;;;;;;;36.08;24.30;;;12.80;99.90;;;;;;2064916;28;20066;-75
2022/10/30 00:19:11;;;;;;;36.95;24.35;;;12.80;99.90;;;;;;2072423;28;20033;-75
2022/10/30 00:20:12;;;;;;;37.70;24.70;;;12.70;99.90;;;;;;2073213;28;20566;-77
2022/10/30 00:21:14;;;;;;;34.88;24.10;;;12.70;99.90;;;;;;2073745;28;20028;-77
2022/10/30 00:22:15;;;;;;;34.67;24.13;;;12.70;99.90;;;;;;2073777;28;20172;-74
2022/10/30 00:23:16;;;;;;;37.17;24.00;;;12.80;99.90;;;;;;2075157;28;20026;-76
2022/10/30 00:24:17;;;;;;;37.58;24.33;;;12.70;99.90;;;;;;2076498;28;20093;-77
2022/10/30 00:25:17;;;;;;;34.75;23.77;;;12.80;99.90;;;;;;2077248;28;20022;-77
2022/10/30 00:26:20;;;;;;;39.97;25.13;;;12.70;99.90;;;;;;2076788;28;20025;-77
2022/10/30 00:27:21;;;;;;;35.42;23.92;;;12.70;99.90;;;;;;2081199;28;20037;-76
2022/10/30 00:28:22;;;;;;;38.20;25.05;;;12.70;99.90;;;;;;2081104;28;20569;-77
2022/10/30 00:29:23;;;;;;;34.53;24.02;;;12.80;99.90;;;;;;2073374;28;20061;-76
2022/10/30 00:30:24;;;;;;;37.72;24.10;;;12.80;99.90;;;;;;2074145;28;20048;-78
2022/10/30 00:31:25;;;;;;;37.13;24.77;;;12.70;99.90;;;;;;2081791;28;20025;-77
2022/10/30 00:32:27;;;;;;;38.17;24.52;;;12.80;99.90;;;;;;2081539;28;20080;-76
2022/10/30 00:33:28;;;;;;;37.83;25.10;;;12.70;99.90;;;;;;2072713;28;20105;-77
2022/10/30 00:34:28;;;;;;;34.92;24.38;;;12.80;99.90;;;;;;2063488;28;20409;-77
2022/10/30 00:35:30;;;;;;;37.35;23.95;;;12.80;99.90;;;;;;2072201;28;20440;-77
2022/10/30 00:36:30;;;;;;;35.53;23.98;;;12.80;99.90;;;;;;2072766;28;20061;-76
2022/10/30 00:37:31;;;;;;;33.88;23.42;;;12.80;99.90;;;;;;2072816;28;20022;-77
2022/10/30 00:38:32;;;;;;;33.08;22.90;;;12.80;99.90;;;;;;2081646;28;20029;-76
2022/10/30 00:39:33;;;;;;;37.47;24.60;;;12.80;99.90;;;;;;2081609;28;20480;-77
2022/10/30 00:40:33;;;;;;;33.80;23.33;;;12.80;99.90;;;;;;2073100;28;20122;-77
2022/10/30 00:41:35;;;;;;;37.33;24.25;;;12.80;99.90;;;;;;2073271;28;20030;-76
2022/10/30 00:42:37;;;;;;;38.88;25.13;;;12.90;99.90;;;;;;2073369;28;20397;-77
2022/10/30 00:43:39;;;;;;;36.22;24.67;;;12.80;99.90;;;;;;2065313;28;20062;-76
2022/10/30 00:44:43;;;;;;;37.45;24.45;;;12.80;99.90;;;;;;2073320;28;20033;-77
2022/10/30 00:45:43;;;;;;;35.25;23.95;;;12.80;99.90;;;;;;2063344;28;20684;-77
2022/10/30 00:46:44;;;;;;;37.10;25.42;;;12.90;99.90;;;;;;2073626;28;20037;-77
2022/10/30 00:47:57;;;;;;;36.15;25.10;;;12.90;99.90;;;;;;2074612;28;20110;-77
2022/10/30 00:49:14;;;;;;;34.75;24.70;;;12.90;99.90;;;;;;2073707;28;20069;-76
2022/10/30 00:50:33;;;;;;;35.50;23.35;;;12.90;99.90;;;;;;2072087;28;20030;-78
2022/10/30 00:51:36;;;;;;;34.00;22.52;;;12.90;99.90;;;;;;2068054;28;20101;-76
2022/10/30 00:52:43;;;;;;;32.78;22.90;;;12.90;99.90;;;;;;2066309;28;20411;-77
2022/10/30 00:53:46;;;;;;;31.25;22.15;;;12.90;99.90;;;;;;2073289;28;20030;-77
2022/10/30 00:54:48;;;;;;;35.10;24.02;;;12.80;99.90;;;;;;2068045;28;20022;-77
2022/10/30 00:55:48;;;;;;;33.88;23.40;;;12.80;99.90;;;;;;2067798;28;20022;-77
2022/10/30 00:56:50;;;;;;;32.75;22.67;;;12.80;99.90;;;;;;2073140;28;20034;-77
2022/10/30 00:57:52;;;;;;;33.80;22.80;;;12.80;99.90;;;;;;2072224;28;20028;-77
2022/10/30 00:59:12;;;;;;;33.30;23.17;;;12.80;99.90;;;;;;2069536;28;20023;-77
2022/10/30 01:00:14;;;;;;;31.60;22.88;;;12.80;99.90;;;;;;2075650;28;20026;-77
2022/10/30 01:01:19;;;;;;;36.08;23.17;;;12.80;99.90;;;;;;2076133;28;20034;-77
2022/10/30 01:02:21;;;;;;;34.08;22.40;;;12.70;99.90;;;;;;2068020;28;20030;-77
2022/10/30 01:03:26;;;;;;;33.72;23.40;;;12.70;99.90;;;;;;2067827;28;20088;-78
2022/10/30 01:04:27;;;;;;;41.92;27.42;;;12.70;99.90;;;;;;2074812;28;20029;-76
2022/10/30 01:05:32;;;;;;;40.13;26.70;;;12.70;99.90;;;;;;2074441;28;20046;-76
2022/10/30 01:06:35;;;;;;;40.45;25.67;;;12.70;99.90;;;;;;2066504;28;20026;-77
2022/10/30 01:07:36;;;;;;;38.70;25.67;;;12.70;99.90;;;;;;2066487;28;20027;-77
2022/10/30 01:08:38;;;;;;;43.72;28.30;;;12.70;99.90;;;;;;2065970;28;20014;-77
2022/10/30 01:09:40;;;;;;;44.95;27.98;;;12.60;99.90;;;;;;2064645;28;20034;-77
2022/10/30 01:10:41;;;;;;;37.72;26.42;;;12.60;99.90;;;;;;2058327;28;20058;-76
2022/10/30 01:11:42;;;;;;;39.95;26.88;;;12.60;99.90;;;;;;2071856;28;20033;-76
2022/10/30 01:12:44;;;;;;;38.95;26.23;;;12.60;99.90;;;;;;2065667;28;20050;-76
2022/10/30 01:13:48;;;;;;;37.05;25.15;;;12.60;99.90;;;;;;2072911;28;20037;-76
2022/10/30 01:14:54;;;;;;;35.22;23.60;;;12.60;99.90;;;;;;2064797;28;20034;-76
2022/10/30 01:16:25;;;;;;;35.03;23.88;;;12.60;99.90;;;;;;2063378;28;20126;-76
2022/10/30 01:20:11;;;;;;;33.97;23.60;;;12.50;99.90;;;;;;2071407;28;20030;-77
2022/10/30 01:21:46;;;;;;;34.90;23.77;;;12.50;99.90;;;;;;2071863;28;20129;-76
2022/10/30 01:23:08;;;;;;;40.30;25.10;;;12.50;99.90;;;;;;2079265;28;20037;-77
2022/10/30 01:24:17;;;;;;;38.05;24.40;;;12.50;99.90;;;;;;2069248;28;20026;-76
2022/10/30 01:25:41;;;;;;;32.50;22.58;;;12.40;99.90;;;;;;2079266;28;20380;-77
2022/10/30 01:26:50;;;;;;;36.38;23.88;;;12.40;99.90;;;;;;2068776;28;20030;-76
2022/10/30 01:28:08;;;;;;;35.67;24.55;;;12.40;99.90;;;;;;2072800;28;20030;-76
2022/10/30 01:29:31;;;;;;;34.50;23.98;;;12.40;99.90;;;;;;2067269;28;20042;-76
2022/10/30 01:30:41;;;;;;;31.98;22.73;;;12.40;99.90;;;;;;2067511;28;20029;-77
2022/10/30 01:32:09;;;;;;;34.17;22.73;;;12.40;99.90;;;;;;2073185;28;20022;-77
2022/10/30 01:33:40;;;;;;;32.50;22.30;;;12.40;99.90;;;;;;2072594;28;20060;-75
2022/10/30 01:35:06;;;;;;;40.75;26.67;;;12.40;99.90;;;;;;2072651;28;20080;-76
2022/10/30 01:36:37;;;;;;;37.30;25.08;;;12.40;99.90;;;;;;2068948;28;20049;-76
2022/10/30 01:37:58;;;;;;;34.45;23.45;;;12.40;99.90;;;;;;2064335;28;20041;-76
2022/10/30 01:39:04;;;;;;;34.53;23.67;;;12.40;99.90;;;;;;2081154;28;20104;-76
2022/10/30 01:40:10;;;;;;;33.95;22.73;;;12.40;99.90;;;;;;2080391;28;20519;-77
2022/10/30 01:41:11;;;;;;;43.33;27.08;;;12.30;99.90;;;;;;2072715;28;20562;-76
2022/10/30 01:42:44;;;;;;;40.30;26.50;;;12.30;99.90;;;;;;2064634;28;20081;-76
2022/10/30 01:43:47;;;;;;;34.90;24.15;;;12.30;99.90;;;;;;2069174;28;20531;-76
2022/10/30 01:44:48;;;;;;;34.03;24.25;;;12.40;99.90;;;;;;2072642;28;20030;-76
2022/10/30 01:45:54;;;;;;;35.00;23.15;;;12.30;99.90;;;;;;2072490;28;20030;-77
2022/10/30 01:47:07;;;;;;;35.42;23.42;;;12.30;99.90;;;;;;2072746;28;20516;-76
2022/10/30 01:48:25;;;;;;;34.47;22.98;;;12.30;99.90;;;;;;2080554;28;20037;-76
2022/10/30 01:50:07;;;;;;;32.72;22.58;;;12.30;99.90;;;;;;2077754;28;20511;-76
2022/10/30 01:51:23;;;;;;;33.85;23.20;;;12.30;99.90;;;;;;2072353;28;20053;-77
2022/10/30 01:52:38;;;;;;;33.08;22.98;;;12.30;99.90;;;;;;2066647;28;20727;-77
2022/10/30 01:53:48;;;;;;;33.58;23.08;;;12.30;99.90;;;;;;2072648;28;20038;-76
2022/10/30 01:55:01;;;;;;;36.05;24.58;;;12.30;99.90;;;;;;2065293;28;20694;-76
2022/10/30 01:56:37;;;;;;;37.20;25.20;;;12.30;99.90;;;;;;2066070;28;20081;-76
2022/10/30 01:57:53;;;;;;;36.63;23.77;;;12.30;99.90;;;;;;2072500;28;20045;-77
2022/10/30 01:59:28;;;;;;;34.90;23.08;;;12.30;99.90;;;;;;2072992;28;20017;-76
2022/10/30 02:00:30;;;;;;;32.72;22.48;;;12.30;99.90;;;;;;2064224;28;20045;-77
2022/10/30 02:01:34;;;;;;;38.67;25.08;;;12.30;99.90;;;;;;2072728;28;20121;-76
2022/10/30 02:02:35;;;;;;;34.65;24.15;;;12.30;99.90;;;;;;2072528;28;20061;-75
2022/10/30 02:03:36;;;;;;;33.17;23.38;;;12.30;99.90;;;;;;2064561;28;20038;-76
2022/10/30 02:04:37;;;;;;;36.45;22.63;;;12.30;99.90;;;;;;2072733;28;20030;-76
2022/10/30 02:05:49;;;;;;;32.70;22.15;;;12.30;99.90;;;;;;2072572;28;20030;-76
2022/10/30 02:06:52;;;;;;;32.38;22.23;;;12.30;99.90;;;;;;2072398;28;20550;-76
2022/10/30 02:07:54;;;;;;;31.65;21.65;;;12.30;99.90;;;;;;2064385;28;20766;-76
2022/10/30 02:08:55;;;;;;;31.75;21.58;;;12.30;99.90;;;;;;2064616;28;20039;-75
2022/10/30 02:09:56;;;;;;;33.85;21.63;;;12.20;99.90;;;;;;2064710;28;20034;-76
2022/10/30 02:10:58;;;;;;;31.05;21.95;;;12.30;99.90;;;;;;2064690;28;20546;-76
2022/10/30 02:12:15;;;;;;;30.13;20.15;;;12.20;99.90;;;;;;2073161;28;20026;-76
2022/10/30 02:13:16;;;;;;;29.95;20.77;;;12.20;99.90;;;;;;2064592;28;20023;-76
2022/10/30 02:14:27;;;;;;;29.55;20.95;;;12.20;99.90;;;;;;2056507;28;20537;-76
2022/10/30 02:15:29;;;;;;;30.50;21.45;;;12.20;99.90;;;;;;2064655;28;20038;-76
2022/10/30 02:16:37;;;;;;;29.75;21.08;;;12.20;99.90;;;;;;2064427;28;20030;-76
2022/10/30 02:17:39;;;;;;;30.80;21.02;;;12.20;99.90;;;;;;2064476;28;20154;-75
2022/10/30 02:18:40;;;;;;;31.55;21.45;;;12.10;99.90;;;;;;2064622;28;20074;-76
2022/10/30 02:19:41;;;;;;;34.30;23.13;;;12.10;99.90;;;;;;2072572;28;20018;-76
2022/10/30 02:20:42;;;;;;;31.10;21.63;;;12.10;99.90;;;;;;2064402;28;20026;-75
2022/10/30 02:21:43;;;;;;;31.02;22.70;;;12.10;99.90;;;;;;2064382;28;20057;-75
2022/10/30 02:22:44;;;;;;;35.22;23.15;;;12.10;99.90;;;;;;2064426;28;20042;-75
2022/10/30 02:23:45;;;;;;;33.85;22.90;;;12.10;99.90;;;;;;2072526;28;20069;-76
2022/10/30 02:24:45;;;;;;;32.08;22.05;;;12.10;99.90;;;;;;2072363;28;20030;-76
2022/10/30 02:25:47;;;;;;;29.08;21.17;;;12.10;99.90;;;;;;2064294;28;20034;-76
2022/10/30 02:26:48;;;;;;;31.80;21.75;;;12.10;99.90;;;;;;2064365;28;20475;-76
2022/10/30 02:27:49;;;;;;;32.95;21.88;;;12.10;99.90;;;;;;2065046;28;20034;-75
2022/10/30 02:28:49;;;;;;;33.03;21.02;;;12.10;99.90;;;;;;2072293;28;20038;-76
2022/10/30 02:29:51;;;;;;;31.75;21.00;;;12.10;99.90;;;;;;2064156;28;20117;-75
2022/10/30 02:30:52;;;;;;;32.17;21.10;;;12.10;99.90;;;;;;2064180;28;20038;-76
2022/10/30 02:31:53;;;;;;;29.33;21.17;;;12.10;99.90;;;;;;2064286;28;20077;-76
2022/10/30 02:32:54;;;;;;;31.10;21.58;;;12.10;99.90;;;;;;2064195;28;20033;-75
2022/10/30 02:33:55;;;;;;;30.23;20.67;;;12.10;99.90;;;;;;2064209;28;20136;-75
2022/10/30 02:34:55;;;;;;;40.20;26.25;;;12.00;99.90;;;;;;2063958;28;20077;-75
2022/10/30 02:35:56;;;;;;;39.65;25.65;;;12.10;99.90;;;;;;2064032;28;20018;-75
2022/10/30 02:36:57;;;;;;;34.90;23.92;;;12.10;99.90;;;;;;2072060;28;20574;-75
2022/10/30 02:37:57;;;;;;;32.65;22.77;;;12.10;99.90;;;;;;2063837;28;20121;-75
2022/10/30 02:39:00;;;;;;;34.03;22.88;;;12.10;99.90;;;;;;2064263;28;20041;-76
2022/10/30 02:40:04;;;;;;;32.63;22.33;;;12.10;99.90;;;;;;2064754;28;20057;-77
2022/10/30 02:41:04;;;;;;;32.42;22.05;;;12.10;99.90;;;;;;2072263;28;20018;-73
2022/10/30 02:42:05;;;;;;;32.22;22.33;;;12.20;99.90;;;;;;2064631;28;20026;-75
2022/10/30 02:43:06;;;;;;;32.83;22.20;;;12.20;99.90;;;;;;2064594;28;20559;-75
2022/10/30 02:44:07;;;;;;;32.22;21.90;;;12.20;99.90;;;;;;2064352;28;20030;-75
2022/10/30 02:45:10;;;;;;;30.20;20.42;;;12.20;99.90;;;;;;2072486;28;20030;-75
2022/10/30 02:46:11;;;;;;;30.73;21.40;;;12.20;99.90;;;;;;2072098;28;20153;-76
2022/10/30 02:47:11;;;;;;;29.85;20.85;;;12.20;99.90;;;;;;2064271;28;20709;-74
2022/10/30 02:48:12;;;;;;;31.05;20.73;;;12.20;99.90;;;;;;2064075;28;20077;-75
2022/10/30 02:49:13;;;;;;;28.67;20.77;;;12.20;99.90;;;;;;2056693;28;20034;-74
2022/10/30 02:50:14;;;;;;;29.55;20.23;;;12.30;99.90;;;;;;2064429;28;20026;-75
2022/10/30 02:51:15;;;;;;;29.20;19.90;;;12.30;99.90;;;;;;2072689;28;20034;-76
2022/10/30 02:52:15;;;;;;;28.67;20.50;;;12.30;99.90;;;;;;2064790;28;20081;-77
2022/10/30 02:53:16;;;;;;;28.67;20.77;;;12.30;99.90;;;;;;2064996;28;20046;-76
2022/10/30 02:54:18;;;;;;;26.50;19.23;;;12.30;99.90;;;;;;2058014;28;20031;-75
2022/10/30 02:55:18;;;;;;;29.25;20.17;;;12.30;99.90;;;;;;2067096;28;20018;-76
2022/10/30 02:56:21;;;;;;;27.92;20.08;;;12.30;99.90;;;;;;2066933;28;20034;-76
2022/10/30 02:57:21;;;;;;;31.40;20.52;;;12.30;99.90;;;;;;2059521;28;20031;-77
2022/10/30 02:58:22;;;;;;;27.10;20.17;;;12.30;99.90;;;;;;2066132;28;20026;-76
2022/10/30 02:59:23;;;;;;;27.15;19.83;;;12.40;99.90;;;;;;2066150;28;20018;-76
2022/10/30 03:00:24;;;;;;;29.25;19.42;;;12.40;99.90;;;;;;2065737;28;20424;-77
2022/10/30 03:01:25;;;;;;;26.98;19.50;;;12.40;99.90;;;;;;2064756;28;20054;-76
2022/10/30 03:02:29;;;;;;;27.30;19.60;;;12.40;99.90;;;;;;2057353;28;20038;-76
2022/10/30 03:03:30;;;;;;;27.85;19.67;;;12.40;99.90;;;;;;2057119;28;20031;-76
2022/10/30 03:04:31;;;;;;;28.83;19.75;;;12.40;99.90;;;;;;2057571;28;20038;-75
2022/10/30 03:05:31;;;;;;;28.33;19.83;;;12.40;99.90;;;;;;2050316;28;20035;-76
2022/10/30 03:06:32;;;;;;;28.35;20.17;;;12.40;99.90;;;;;;2049432;28;20527;-76
2022/10/30 03:07:33;;;;;;;27.67;19.55;;;12.40;99.90;;;;;;2057292;28;20031;-76
2022/10/30 03:08:34;;;;;;;26.55;19.30;;;12.40;99.90;;;;;;2066188;28;20061;-76
2022/10/30 03:09:35;;;;;;;26.52;19.25;;;12.40;99.90;;;;;;2066288;28;20026;-77
2022/10/30 03:10:37;;;;;;;27.40;19.85;;;12.40;99.90;;;;;;2074288;28;20114;-77
2022/10/30 03:11:37;;;;;;;27.85;19.55;;;12.50;99.90;;;;;;2074816;28;20057;-76
2022/10/30 03:12:38;;;;;;;27.08;19.45;;;12.40;99.90;;;;;;2067231;28;20121;-78
2022/10/30 03:13:42;;;;;;;27.17;19.88;;;12.50;99.90;;;;;;2067656;28;20057;-76
2022/10/30 03:14:44;;;;;;;25.98;19.63;;;12.40;99.90;;;;;;2068480;28;20033;-77
2022/10/30 03:15:44;;;;;;;27.63;19.92;;;12.50;99.90;;;;;;2074549;28;20037;-76
2022/10/30 03:16:46;;;;;;;31.90;22.85;;;12.40;99.90;;;;;;2064324;28;20588;-76
2022/10/30 03:17:51;;;;;;;39.65;24.65;;;12.40;99.90;;;;;;2063758;28;20061;-76
2022/10/30 03:18:52;;;;;;;32.58;22.35;;;12.40;99.90;;;;;;2064303;28;20037;-76
2022/10/30 03:19:52;;;;;;;31.45;21.70;;;12.40;99.90;;;;;;2064884;28;20074;-76
2022/10/30 03:20:59;;;;;;;31.67;21.85;;;12.40;99.90;;;;;;2073144;28;20057;-76
2022/10/30 03:21:59;;;;;;;34.53;23.00;;;12.50;99.90;;;;;;2071894;28;20082;-76
2022/10/30 03:23:00;;;;;;;35.28;22.98;;;12.50;99.90;;;;;;2065645;28;20038;-76
2022/10/30 03:24:01;;;;;;;36.45;23.42;;;12.50;99.90;;;;;;2066439;28;20643;-76
2022/10/30 03:25:01;;;;;;;31.13;21.52;;;12.50;99.90;;;;;;2074632;28;20037;-75
2022/10/30 03:26:03;;;;;;;34.17;22.52;;;12.50;99.90;;;;;;2065894;28;20042;-76
2022/10/30 03:27:06;;;;;;;38.20;25.55;;;12.50;99.90;;;;;;2064456;28;20187;-76
2022/10/30 03:28:07;;;;;;;38.28;25.70;;;12.50;99.90;;;;;;2064955;28;20038;-76
2022/10/30 03:29:08;;;;;;;36.25;24.00;;;12.50;99.90;;;;;;2064894;28;20105;-76
2022/10/30 03:30:09;;;;;;;36.03;23.27;;;12.50;99.90;;;;;;2064704;28;20125;-76
2022/10/30 03:31:12;;;;;;;32.25;22.40;;;12.50;99.90;;;;;;2057149;28;20109;-76
2022/10/30 03:32:13;;;;;;;34.08;22.02;;;12.50;99.90;;;;;;2057391;28;20456;-75
2022/10/30 03:33:25;;;;;;;32.55;21.70;;;12.50;99.90;;;;;;2071571;28;20044;-75
2022/10/30 03:34:26;;;;;;;30.67;21.50;;;12.50;99.90;;;;;;2063878;28;20030;-73
2022/10/30 03:35:27;;;;;;;30.95;21.00;;;12.50;99.90;;;;;;2064004;28;20097;-75
2022/10/30 03:36:27;;;;;;;27.80;20.08;;;12.50;99.90;;;;;;2063858;28;20029;-75
2022/10/30 03:37:28;;;;;;;28.63;19.95;;;12.50;99.90;;;;;;2056036;28;20106;-75
2022/10/30 03:38:29;;;;;;;27.58;20.02;;;12.50;99.90;;;;;;2056046;28;20118;-75
2022/10/30 03:39:30;;;;;;;30.48;21.10;;;12.50;99.90;;;;;;2064101;28;20027;-74
2022/10/30 03:40:31;;;;;;;27.52;20.48;;;12.50;99.90;;;;;;2064193;28;20037;-74
2022/10/30 03:41:31;;;;;;;27.77;19.83;;;12.50;99.90;;;;;;2064110;28;20026;-76
2022/10/30 03:42:32;;;;;;;27.42;20.05;;;12.50;99.90;;;;;;2071854;28;20116;-75
2022/10/30 03:43:33;;;;;;;27.75;19.80;;;12.50;99.90;;;;;;2064689;28;20022;-76
2022/10/30 03:44:33;;;;;;;31.83;22.77;;;12.50;99.90;;;;;;2064513;28;20394;-75
2022/10/30 03:45:34;;;;;;;31.38;20.77;;;12.50;99.90;;;;;;2063975;28;20428;-77
2022/10/30 03:46:38;;;;;;;27.88;20.08;;;12.50;99.90;;;;;;2063584;28;20439;-76
2022/10/30 03:48:04;;;;;;;31.48;20.08;;;12.50;99.90;;;;;;2058319;28;20031;-77
2022/10/30 03:49:05;;;;;;;27.73;19.75;;;12.60;99.90;;;;;;2056383;28;20019;-76
2022/10/30 03:50:07;;;;;;;30.25;21.23;;;12.60;99.90;;;;;;2055609;28;20201;-77
2022/10/30 03:51:08;;;;;;;29.88;20.40;;;12.60;99.90;;;;;;2055946;28;20031;-75
2022/10/30 03:52:09;;;;;;;27.08;19.63;;;12.60;99.90;;;;;;2063395;28;20512;-76
2022/10/30 03:53:10;;;;;;;28.90;20.20;;;12.60;99.90;;;;;;2063756;28;20058;-77
2022/10/30 03:54:10;;;;;;;30.70;20.35;;;12.60;99.90;;;;;;2063602;28;20022;-76
2022/10/30 03:55:12;;;;;;;26.23;19.17;;;12.60;99.90;;;;;;2063710;28;20112;-76
2022/10/30 03:56:15;;;;;;;28.95;19.67;;;12.60;99.90;;;;;;2056027;28;20035;-76
2022/10/30 03:57:20;;;;;;;26.55;19.23;;;12.60;99.90;;;;;;2055669;28;20107;-76
2022/10/30 03:58:38;;;;;;;27.05;19.05;;;12.60;99.90;;;;;;2065819;28;20022;-76
2022/10/30 03:59:42;;;;;;;27.73;19.15;;;12.60;99.90;;;;;;2063759;28;20030;-76
2022/10/30 04:01:06;;;;;;;27.05;19.10;;;12.60;99.90;;;;;;2064237;28;20471;-75
2022/10/30 04:02:10;;;;;;;26.63;18.58;;;12.60;99.90;;;;;;2072002;28;20552;-74
2022/10/30 04:03:11;;;;;;;26.98;19.17;;;12.60;99.90;;;;;;2063795;28;20030;-75
2022/10/30 04:04:15;;;;;;;29.08;20.08;;;12.60;99.90;;;;;;2063882;28;20692;-75
2022/10/30 04:05:19;;;;;;;29.20;20.63;;;12.60;99.90;;;;;;2055854;28;20023;-76
2022/10/30 04:06:21;;;;;;;32.38;21.80;;;12.60;99.90;;;;;;2064116;28;20022;-75
2022/10/30 04:07:21;;;;;;;31.95;21.60;;;12.60;99.90;;;;;;2063505;28;20030;-76
2022/10/30 04:08:23;;;;;;;28.83;20.60;;;12.50;99.90;;;;;;2063464;28;20054;-78
2022/10/30 04:09:23;;;;;;;31.75;20.67;;;12.50;99.90;;;;;;2063159;28;20025;-76
2022/10/30 04:10:24;;;;;;;29.60;20.33;;;12.50;99.90;;;;;;2063422;28;20456;-77
2022/10/30 04:11:26;;;;;;;28.05;20.38;;;12.50;99.90;;;;;;2063337;28;20033;-77
2022/10/30 04:12:27;;;;;;;29.67;20.50;;;12.50;99.90;;;;;;2055440;28;20042;-76
2022/10/30 04:13:27;;;;;;;29.20;19.88;;;12.50;99.90;;;;;;2063631;28;20030;-77
2022/10/30 04:14:28;;;;;;;27.95;19.10;;;12.50;99.90;;;;;;2073341;28;20026;-77
2022/10/30 04:15:29;;;;;;;26.90;19.40;;;12.50;99.90;;;;;;2081494;28;20498;-76
2022/10/30 04:16:29;;;;;;;26.25;18.73;;;12.50;99.90;;;;;;2073484;28;20101;-77
2022/10/30 04:17:33;;;;;;;32.35;21.75;;;12.50;99.90;;;;;;2072889;28;20033;-77
2022/10/30 04:18:37;;;;;;;29.08;20.55;;;12.50;99.90;;;;;;2073070;28;20037;-76
2022/10/30 04:19:39;;;;;;;32.63;21.23;;;12.50;99.90;;;;;;2065027;28;20668;-76
2022/10/30 04:20:41;;;;;;;30.63;20.95;;;12.50;99.90;;;;;;2065049;28;20049;-76
2022/10/30 04:21:42;;;;;;;32.13;21.52;;;12.50;99.90;;;;;;2072861;28;20037;-77
2022/10/30 04:22:43;;;;;;;29.08;21.25;;;12.50;99.90;;;;;;2065080;28;20113;-77
2022/10/30 04:23:48;;;;;;;30.50;20.95;;;12.50;99.90;;;;;;2057243;28;20035;-76
2022/10/30 04:24:49;;;;;;;33.90;22.42;;;12.50;99.90;;;;;;2065461;28;20045;-76
2022/10/30 04:25:50;;;;;;;36.83;24.23;;;12.50;99.90;;;;;;2073108;28;20037;-77
2022/10/30 04:27:01;;;;;;;31.02;22.52;;;12.50;99.90;;;;;;2081128;28;20029;-76
2022/10/30 04:28:02;;;;;;;30.85;22.35;;;12.50;99.90;;;;;;2066365;28;20065;-76
2022/10/30 04:29:03;;;;;;;28.33;20.70;;;12.50;99.90;;;;;;2065546;28;20696;-77
2022/10/30 04:30:04;;;;;;;30.13;21.40;;;12.50;99.90;;;;;;2073016;28;20030;-77
2022/10/30 04:31:05;;;;;;;31.60;22.05;;;12.50;99.90;;;;;;2064892;28;20041;-76
2022/10/30 04:32:08;;;;;;;32.22;21.65;;;12.50;99.90;;;;;;2065669;28;20117;-78
2022/10/30 04:33:12;;;;;;;31.40;21.20;;;12.50;99.90;;;;;;2065497;28;20069;-76
2022/10/30 04:34:13;;;;;;;34.53;22.63;;;12.50;99.90;;;;;;2072618;28;20026;-76
2022/10/30 04:35:17;;;;;;;37.72;24.95;;;12.50;99.90;;;;;;2081335;28;20033;-77
2022/10/30 04:36:20;;;;;;;39.42;25.60;;;12.50;99.90;;;;;;2072991;28;20131;-76
2022/10/30 04:37:21;;;;;;;40.05;25.70;;;12.50;99.90;;;;;;2073092;28;20022;-77
2022/10/30 04:38:21;;;;;;;33.63;23.40;;;12.50;99.90;;;;;;2073865;28;20049;-76
2022/10/30 04:39:22;;;;;;;34.80;23.05;;;12.50;99.90;;;;;;2073148;28;20017;-76
2022/10/30 04:40:34;;;;;;;30.30;21.50;;;12.40;99.90;;;;;;2073201;28;20086;-76
2022/10/30 04:41:38;;;;;;;29.30;21.17;;;12.40;99.90;;;;;;2081221;28;20022;-76
2022/10/30 04:42:47;;;;;;;28.77;20.05;;;12.40;99.90;;;;;;2073129;28;20436;-76
2022/10/30 04:43:49;;;;;;;26.92;19.80;;;12.30;99.90;;;;;;2073161;28;20117;-77
2022/10/30 04:44:50;;;;;;;28.10;19.75;;;12.30;99.90;;;;;;2072813;28;20068;-76
2022/10/30 04:45:51;;;;;;;28.58;19.77;;;12.30;99.90;;;;;;2073081;28;20068;-76
2022/10/30 04:46:51;;;;;;;32.00;22.88;;;12.30;99.90;;;;;;2064557;28;20029;-77
2022/10/30 04:47:58;;;;;;;38.80;26.27;;;12.30;99.90;;;;;;2072506;28;20057;-76
2022/10/30 04:48:59;;;;;;;35.30;25.08;;;12.30;99.90;;;;;;2081196;28;20026;-76
2022/10/30 04:50:00;;;;;;;36.75;23.80;;;12.30;99.90;;;;;;2072764;28;20022;-76
2022/10/30 04:51:00;;;;;;;35.65;23.30;;;12.30;99.90;;;;;;2072849;28;20048;-78
2022/10/30 04:52:02;;;;;;;31.35;22.92;;;12.30;99.90;;;;;;2073119;28;20026;-77
2022/10/30 04:53:06;;;;;;;31.63;22.30;;;12.20;99.90;;;;;;2064782;28;20058;-76
2022/10/30 04:54:06;;;;;;;30.00;21.50;;;12.20;99.90;;;;;;2072851;28;20030;-76
2022/10/30 04:55:08;;;;;;;27.50;20.80;;;12.20;99.90;;;;;;2080897;28;20053;-76
2022/10/30 04:56:09;;;;;;;30.25;20.85;;;12.20;99.90;;;;;;2072616;28;20085;-76
2022/10/30 04:57:11;;;;;;;29.45;20.02;;;12.20;99.90;;;;;;2064560;28;20030;-76
2022/10/30 04:58:15;;;;;;;28.67;20.60;;;12.20;99.90;;;;;;2072744;28;20041;-77
2022/10/30 04:59:19;;;;;;;28.10;19.90;;;12.10;99.90;;;;;;2073460;28;20125;-75
2022/10/30 05:00:20;;;;;;;33.15;21.23;;;12.10;99.90;;;;;;2081655;28;20430;-76
2022/10/30 05:01:21;;;;;;;29.30;21.20;;;12.10;99.90;;;;;;2082052;28;20022;-77
2022/10/30 05:02:21;;;;;;;27.35;19.73;;;12.10;99.90;;;;;;2082151;28;20083;-76
2022/10/30 05:03:23;;;;;;;29.33;20.52;;;12.10;99.90;;;;;;2073769;28;20040;-75
2022/10/30 05:04:24;;;;;;;29.65;20.60;;;12.10;99.90;;;;;;2073778;28;20030;-77
2022/10/30 05:05:25;;;;;;;27.13;19.98;;;12.10;99.90;;;;;;2057797;28;20031;-77
2022/10/30 05:06:29;;;;;;;27.13;19.45;;;12.10;99.90;;;;;;2058341;28;20057;-76
2022/10/30 05:07:30;;;;;;;28.60;20.58;;;12.10;99.90;;;;;;2058037;28;20532;-76
2022/10/30 05:08:32;;;;;;;37.17;24.67;;;12.10;99.90;;;;;;2065428;28;20029;-76
2022/10/30 05:09:35;;;;;;;38.08;26.50;;;12.10;99.90;;;;;;2073781;28;20049;-77
2022/10/30 05:10:39;;;;;;;38.55;26.23;;;12.10;99.90;;;;;;2065785;28;20037;-77
2022/10/30 05:11:40;;;;;;;42.20;27.92;;;12.10;99.90;;;;;;2065684;28;20018;-75
2022/10/30 05:12:43;;;;;;;39.75;27.33;;;12.20;99.90;;;;;;2073386;28;20455;-76
2022/10/30 05:13:43;;;;;;;39.72;26.33;;;12.20;99.90;;;;;;2073330;28;20026;-77
2022/10/30 05:14:44;;;;;;;37.83;25.60;;;12.20;99.90;;;;;;2057208;28;20031;-76
2022/10/30 05:15:45;;;;;;;34.65;24.20;;;12.20;99.90;;;;;;2065407;28;20042;-77
2022/10/30 05:16:45;;;;;;;31.77;22.90;;;12.20;99.90;;;;;;2073124;28;20022;-76
2022/10/30 05:17:51;;;;;;;35.03;23.88;;;12.30;99.90;;;;;;2073378;28;20026;-76
2022/10/30 05:18:51;;;;;;;34.45;23.42;;;12.30;99.90;;;;;;2073248;28;20065;-76
2022/10/30 05:19:53;;;;;;;36.15;24.27;;;12.30;99.90;;;;;;2064561;28;20125;-76
2022/10/30 05:20:54;;;;;;;32.53;23.38;;;12.30;99.90;;;;;;2072421;28;20512;-76
2022/10/30 05:21:56;;;;;;;31.80;22.73;;;12.30;99.90;;;;;;2073133;28;20069;-76
2022/10/30 05:22:58;;;;;;;32.03;22.65;;;12.30;99.90;;;;;;2080929;28;20032;-77
2022/10/30 05:23:59;;;;;;;28.58;21.23;;;12.30;99.90;;;;;;2073221;28;20026;-76
2022/10/30 05:25:03;;;;;;;28.95;20.98;;;12.30;99.90;;;;;;2080407;28;20021;-75
2022/10/30 05:26:04;;;;;;;30.35;20.75;;;12.30;99.90;;;;;;2074859;28;20803;-76
2022/10/30 05:27:05;;;;;;;36.80;21.02;;;12.30;99.90;;;;;;2066598;28;20093;-75
2022/10/30 05:28:08;;;;;;;29.67;20.52;;;12.30;99.90;;;;;;2075985;28;20041;-76